createdAt,value
2023-05-14T00:01:13.357Z,8.20
2023-05-14T00:03:41.273Z,6.80
2023-05-14T00:06:09.543Z,5.47
2023-05-14T00:08:37.086Z,5.10
2023-05-14T00:11:04.555Z,5.55
2023-05-14T00:13:33.601Z,11.00
2023-05-14T00:16:01.221Z,8.32
2023-05-14T00:18:28.805Z,4.97
2023-05-14T00:20:56.349Z,7.57
2023-05-14T00:23:23.969Z,7.47
2023-05-14T00:25:51.469Z,6.93
2023-05-14T00:28:19.005Z,7.18
2023-05-14T00:30:48.206Z,6.40
2023-05-14T00:33:15.720Z,8.45
2023-05-14T00:35:43.266Z,9.57
2023-05-14T00:38:16.739Z,6.78
2023-05-14T00:40:46.039Z,12.20
2023-05-14T00:43:13.568Z,10.13
2023-05-14T00:45:41.062Z,12.93
2023-05-14T00:48:10.260Z,9.35
2023-05-14T00:50:37.930Z,7.88
2023-05-14T00:53:10.126Z,8.52
2023-05-14T00:55:38.967Z,9.52
2023-05-14T00:58:08.273Z,7.65
2023-05-14T01:00:36.091Z,11.07
2023-05-14T01:03:04.267Z,6.18
2023-05-14T01:05:37.503Z,7.40
2023-05-14T01:08:07.740Z,11.77
2023-05-14T01:10:39.938Z,9.75
2023-05-14T01:13:11.447Z,9.90
2023-05-14T01:15:40.569Z,8.57
2023-05-14T01:18:09.725Z,6.22
2023-05-14T01:20:38.682Z,5.80
2023-05-14T01:23:07.534Z,9.95
2023-05-14T01:25:35.464Z,7.93
2023-05-14T01:28:07.505Z,6.03
2023-05-14T01:30:36.785Z,8.77
2023-05-14T01:33:07.153Z,12.48
2023-05-14T01:35:34.889Z,7.90
2023-05-14T01:38:03.125Z,9.43
2023-05-14T01:40:33.800Z,5.57
2023-05-14T01:43:01.727Z,7.93
2023-05-14T01:45:29.278Z,8.10
2023-05-14T01:47:56.877Z,7.00
2023-05-14T01:50:24.656Z,8.32
2023-05-14T01:52:53.539Z,6.00
2023-05-14T01:55:21.184Z,6.43
2023-05-14T01:57:50.193Z,7.72
2023-05-14T02:00:17.869Z,8.07
2023-05-14T02:02:45.384Z,10.27
2023-05-14T02:05:13.169Z,11.60
2023-05-14T02:07:40.687Z,25.27
2023-05-14T02:10:09.076Z,10.20
2023-05-14T02:12:36.641Z,7.95
2023-05-14T02:15:05.793Z,10.45
2023-05-14T02:17:35.678Z,8.63
2023-05-14T02:20:03.272Z,11.77
2023-05-14T02:22:30.838Z,7.95
2023-05-14T02:24:58.398Z,6.95
2023-05-14T02:27:26.124Z,9.68
2023-05-14T02:29:53.713Z,6.47
2023-05-14T02:32:22.644Z,7.75
2023-05-14T02:34:50.657Z,6.45
2023-05-14T02:37:18.137Z,7.10
2023-05-14T02:39:45.620Z,7.35
2023-05-14T02:42:13.147Z,7.55
2023-05-14T02:44:40.850Z,7.45
2023-05-14T02:47:08.444Z,7.60
2023-05-14T02:49:37.423Z,8.20
2023-05-14T02:52:05.532Z,9.52
2023-05-14T02:54:33.020Z,6.13
2023-05-14T02:57:00.660Z,11.32
2023-05-14T02:59:29.181Z,9.85
2023-05-14T03:01:57.923Z,9.93
2023-05-14T03:04:25.814Z,8.00
2023-05-14T03:06:54.577Z,8.05
2023-05-14T03:09:22.024Z,7.47
2023-05-14T03:11:49.571Z,5.78
2023-05-14T03:14:17.066Z,8.57
2023-05-14T03:16:44.653Z,6.85
2023-05-14T03:19:12.342Z,8.23
2023-05-14T03:21:39.895Z,7.95
2023-05-14T03:24:08.857Z,8.43
2023-05-14T03:26:37.413Z,6.82
2023-05-14T03:29:05.065Z,10.27
2023-05-14T03:31:32.596Z,9.85
2023-05-14T03:34:00.185Z,7.53
2023-05-14T03:36:28.116Z,6.70
2023-05-14T03:38:55.615Z,6.70
2023-05-14T03:41:24.461Z,5.65
2023-05-14T03:43:51.904Z,7.10
2023-05-14T03:46:19.736Z,13.13
2023-05-14T03:48:47.303Z,11.88
2023-05-14T03:51:14.874Z,9.73
2023-05-14T03:53:42.445Z,9.73
2023-05-14T03:56:10.151Z,6.35
2023-05-14T03:58:39.001Z,13.77
2023-05-14T04:01:06.446Z,13.43
2023-05-14T04:03:34.151Z,8.80
2023-05-14T04:06:02.342Z,6.82
2023-05-14T04:08:29.858Z,17.33
2023-05-14T04:10:57.418Z,8.48
2023-05-14T04:13:24.903Z,8.35
2023-05-14T04:15:53.780Z,7.20
2023-05-14T04:18:21.364Z,9.70
2023-05-14T04:20:48.905Z,10.57
2023-05-14T04:23:16.389Z,9.48
2023-05-14T04:25:43.928Z,13.05
2023-05-14T04:28:11.413Z,8.43
2023-05-14T04:30:38.928Z,15.75
2023-05-14T04:33:07.940Z,7.30
2023-05-14T04:35:35.430Z,7.40
2023-05-14T04:38:03.514Z,9.98
2023-05-14T04:40:32.084Z,7.35
2023-05-14T04:42:59.724Z,12.57
2023-05-14T04:45:27.601Z,10.10
2023-05-14T04:47:55.296Z,9.82
2023-05-14T04:50:24.427Z,8.43
2023-05-14T04:52:52.152Z,9.02
2023-05-14T04:55:19.697Z,5.78
2023-05-14T04:57:47.210Z,13.13
2023-05-14T05:00:15.078Z,9.13
2023-05-14T05:02:42.681Z,10.23
2023-05-14T05:05:10.679Z,7.72
2023-05-14T05:07:39.481Z,11.43
2023-05-14T05:10:07.915Z,6.75
2023-05-14T05:12:35.590Z,6.55
2023-05-14T05:15:03.736Z,6.50
2023-05-14T05:17:31.378Z,4.57
2023-05-14T05:19:58.911Z,7.68
2023-05-14T05:22:27.547Z,7.38
2023-05-14T05:24:56.476Z,5.90
2023-05-14T05:27:23.961Z,8.90
2023-05-14T05:29:51.393Z,4.32
2023-05-14T05:32:18.963Z,4.30
2023-05-14T05:34:46.416Z,3.35
2023-05-14T05:37:15.361Z,4.65
2023-05-14T05:39:44.686Z,8.95
2023-05-14T05:42:13.512Z,6.13
2023-05-14T05:44:41.305Z,5.05
2023-05-14T05:47:12.953Z,3.65
2023-05-14T05:49:40.461Z,4.47
2023-05-14T05:52:08.074Z,4.18
2023-05-14T05:54:35.805Z,3.88
2023-05-14T05:57:03.335Z,4.05
2023-05-14T05:59:32.508Z,4.40
2023-05-14T06:02:00.234Z,7.05
2023-05-14T06:04:27.918Z,3.25
2023-05-14T06:06:55.407Z,3.92
2023-05-14T06:09:22.905Z,2.60
2023-05-14T06:11:50.555Z,3.42
2023-05-14T06:14:18.032Z,4.15
2023-05-14T06:16:47.126Z,2.90
2023-05-14T06:19:14.812Z,5.68
2023-05-14T06:21:42.335Z,5.13
2023-05-14T06:24:10.548Z,4.15
2023-05-14T06:26:38.040Z,6.65
2023-05-14T06:29:05.826Z,3.63
2023-05-14T06:31:33.651Z,7.47
2023-05-14T06:34:02.786Z,2.78
2023-05-14T06:36:30.334Z,3.75
2023-05-14T06:38:57.942Z,3.25
2023-05-14T06:41:26.207Z,8.55
2023-05-14T06:43:53.669Z,4.03
2023-05-14T06:46:21.247Z,4.63
2023-05-14T06:48:48.763Z,4.38
2023-05-14T06:51:17.604Z,4.13
2023-05-14T06:53:45.136Z,4.35
2023-05-14T06:56:13.592Z,4.88
2023-05-14T06:58:41.528Z,2.80
2023-05-14T07:01:09.201Z,4.90
2023-05-14T07:03:36.726Z,5.65
2023-05-14T07:06:04.287Z,3.08
2023-05-14T07:11:00.498Z,6.53
2023-05-14T07:13:28.810Z,4.28
2023-05-14T07:15:56.784Z,6.00
2023-05-14T07:18:26.351Z,7.35
2023-05-14T07:20:53.832Z,8.45
2023-05-14T07:23:21.307Z,5.10
2023-05-14T07:25:48.815Z,6.68
2023-05-14T07:28:17.624Z,6.25
2023-05-14T07:30:45.245Z,6.93
2023-05-14T07:33:12.728Z,7.57
2023-05-14T07:35:40.259Z,2.92
2023-05-14T07:38:07.894Z,5.95
2023-05-14T07:40:35.358Z,17.67
2023-05-14T07:43:03.015Z,3.05
2023-05-14T07:45:31.873Z,4.05
2023-05-14T07:47:59.591Z,6.75
2023-05-14T07:50:27.309Z,8.30
2023-05-14T07:52:54.852Z,3.40
2023-05-14T07:55:22.345Z,4.88
2023-05-14T07:57:51.694Z,7.65
2023-05-14T08:00:19.454Z,7.80
2023-05-14T08:02:49.029Z,3.70
2023-05-14T08:05:16.863Z,4.63
2023-05-14T08:07:47.183Z,3.33
2023-05-14T08:10:14.678Z,3.47
2023-05-14T08:12:42.898Z,6.10
2023-05-14T08:15:13.491Z,8.98
2023-05-14T08:17:41.049Z,4.50
2023-05-14T08:20:11.950Z,2.47
2023-05-14T08:22:39.845Z,6.20
2023-05-14T08:25:08.076Z,3.17
2023-05-14T08:27:35.560Z,5.47
2023-05-14T08:30:03.047Z,3.63
2023-05-14T08:32:30.740Z,10.50
2023-05-14T08:34:58.292Z,6.97
2023-05-14T08:37:27.340Z,2.75
2023-05-14T08:39:55.123Z,3.83
2023-05-14T08:42:26.088Z,6.03
2023-05-14T08:44:58.150Z,3.22
2023-05-14T08:47:26.191Z,3.58
2023-05-14T08:49:55.940Z,4.65
2023-05-14T08:52:24.446Z,3.70
2023-05-14T08:54:54.247Z,5.43
2023-05-14T08:57:24.877Z,2.88
2023-05-14T08:59:54.045Z,2.40
2023-05-14T09:04:49.097Z,2.95
2023-05-14T09:07:16.972Z,4.50
2023-05-14T09:12:14.916Z,3.10
2023-05-14T09:17:12.944Z,4.55
2023-05-14T09:19:40.849Z,4.03
2023-05-14T09:22:10.576Z,6.30
2023-05-14T09:24:38.790Z,3.25
2023-05-14T09:27:06.994Z,6.03
2023-05-14T09:29:37.166Z,4.47
2023-05-14T09:32:07.634Z,11.88
2023-05-14T09:34:37.991Z,4.25
2023-05-14T09:37:06.563Z,3.58
2023-05-14T09:39:34.342Z,8.07
2023-05-14T09:42:01.983Z,2.65
2023-05-14T09:44:29.712Z,2.65
2023-05-14T09:46:58.865Z,5.85
2023-05-14T09:49:26.401Z,2.05
2023-05-14T09:51:54.153Z,4.78
2023-05-14T09:54:23.038Z,5.95
2023-05-14T09:56:50.948Z,3.13
2023-05-14T09:59:18.969Z,4.82
2023-05-14T10:01:46.644Z,6.80
2023-05-14T10:04:15.793Z,4.53
2023-05-14T10:06:45.106Z,2.80
2023-05-14T10:09:14.343Z,4.28
2023-05-14T10:11:44.366Z,6.22
2023-05-14T10:14:18.696Z,3.88
2023-05-14T10:16:48.254Z,4.38
2023-05-14T10:19:18.323Z,5.22
2023-05-14T10:21:49.080Z,3.20
2023-05-14T10:24:17.504Z,5.50
2023-05-14T10:26:45.800Z,3.42
2023-05-14T10:29:14.218Z,2.72
2023-05-14T10:31:49.821Z,2.00
2023-05-14T10:34:37.673Z,2.50
2023-05-14T10:37:05.961Z,2.25
2023-05-14T10:39:46.780Z,5.15
2023-05-14T10:42:15.043Z,10.65
2023-05-14T10:44:48.998Z,6.57
2023-05-14T10:47:17.919Z,3.45
2023-05-14T10:49:49.392Z,5.50
2023-05-14T10:52:18.673Z,4.75
2023-05-14T10:54:53.272Z,3.38
2023-05-14T10:57:21.461Z,6.40
2023-05-14T10:59:51.599Z,4.18
2023-05-14T11:02:24.328Z,5.78
2023-05-14T11:05:02.617Z,2.13
2023-05-14T11:07:31.643Z,2.45
2023-05-14T11:10:03.704Z,7.22
2023-05-14T11:12:31.576Z,4.65
2023-05-14T11:15:00.237Z,5.57
2023-05-14T11:17:29.763Z,3.10
2023-05-14T11:19:58.186Z,4.22
2023-05-14T11:22:27.200Z,6.22
2023-05-14T11:24:54.698Z,7.72
2023-05-14T11:27:22.972Z,2.78
2023-05-14T11:29:51.333Z,7.78
2023-05-14T11:32:19.199Z,6.10
2023-05-14T11:34:47.103Z,3.10
2023-05-14T11:37:15.117Z,7.57
2023-05-14T11:39:48.999Z,5.63
2023-05-14T11:42:19.705Z,3.33
2023-05-14T11:44:49.052Z,5.57
2023-05-14T11:47:17.046Z,6.10
2023-05-14T11:49:44.972Z,3.55
2023-05-14T11:52:14.253Z,3.47
2023-05-14T11:54:42.830Z,2.25
2023-05-14T11:57:12.676Z,3.47
2023-05-14T11:59:40.498Z,3.63
2023-05-14T12:02:11.420Z,3.92
2023-05-14T12:04:41.798Z,5.43
2023-05-14T12:07:10.302Z,8.88
2023-05-14T12:09:39.067Z,5.60
2023-05-14T12:12:11.381Z,6.90
2023-05-14T12:14:42.961Z,5.47
2023-05-14T12:17:15.388Z,4.82
2023-05-14T12:19:44.066Z,2.00
2023-05-14T12:22:11.936Z,4.57
2023-05-14T12:24:40.560Z,5.32
2023-05-14T12:27:09.073Z,7.72
2023-05-14T12:29:40.950Z,3.80
2023-05-14T12:32:11.063Z,7.28
2023-05-14T12:34:39.167Z,5.68
2023-05-14T12:37:07.049Z,6.55
2023-05-14T12:39:36.529Z,1.92
2023-05-14T12:42:04.141Z,4.78
2023-05-14T12:44:31.640Z,2.03
2023-05-14T12:46:59.527Z,4.22
2023-05-14T12:49:29.031Z,7.03
2023-05-14T12:52:07.802Z,3.65
2023-05-14T12:54:47.092Z,4.35
2023-05-14T12:57:14.555Z,5.13
2023-05-14T12:59:43.257Z,6.07
2023-05-14T13:02:11.567Z,4.18
2023-05-14T13:04:41.658Z,2.30
2023-05-14T13:07:09.584Z,4.22
2023-05-14T13:09:37.266Z,2.65
2023-05-14T13:12:05.198Z,3.67
2023-05-14T13:14:32.730Z,4.68
2023-05-14T13:17:00.527Z,5.72
2023-05-14T13:19:28.449Z,7.40
2023-05-14T13:21:57.778Z,3.53
2023-05-14T13:24:25.567Z,3.22
2023-05-14T13:26:53.113Z,7.88
2023-05-14T13:29:20.594Z,4.35
2023-05-14T13:31:48.460Z,9.10
2023-05-14T13:34:16.202Z,13.30
2023-05-14T13:36:43.877Z,9.25
2023-05-14T13:39:14.230Z,9.20
2023-05-14T13:41:42.072Z,8.60
2023-05-14T13:44:10.813Z,4.82
2023-05-14T13:46:38.528Z,4.28
2023-05-14T13:49:06.536Z,7.90
2023-05-14T13:51:34.085Z,5.07
2023-05-14T13:54:01.799Z,5.03
2023-05-14T13:56:30.694Z,5.57
2023-05-14T13:58:58.293Z,4.57
2023-05-14T14:01:26.151Z,6.03
2023-05-14T14:03:53.669Z,7.10
2023-05-14T14:06:21.173Z,5.18
2023-05-14T14:08:48.882Z,7.50
2023-05-14T14:11:16.954Z,6.88
2023-05-14T14:13:46.807Z,6.57
2023-05-14T14:16:14.581Z,10.20
2023-05-14T14:18:43.164Z,6.18
2023-05-14T14:21:11.287Z,4.50
2023-05-14T14:23:38.832Z,4.07
2023-05-14T14:26:07.810Z,5.25
2023-05-14T14:28:35.549Z,5.97
2023-05-14T14:31:04.472Z,5.68
2023-05-14T14:33:33.674Z,7.05
2023-05-14T14:36:01.521Z,4.78
2023-05-14T14:38:29.324Z,4.43
2023-05-14T14:40:56.838Z,12.50
2023-05-14T14:43:24.764Z,6.10
2023-05-14T14:45:52.784Z,5.70
2023-05-14T14:48:27.194Z,3.97
2023-05-14T14:50:55.166Z,4.15
2023-05-14T14:53:23.219Z,5.28
2023-05-14T14:55:54.272Z,10.43
2023-05-14T14:58:22.363Z,6.20
2023-05-14T15:00:51.804Z,9.05
2023-05-14T15:03:19.935Z,4.45
2023-05-14T15:05:48.970Z,5.55
2023-05-14T15:08:16.549Z,6.35
2023-05-14T15:10:45.792Z,4.15
2023-05-14T15:13:14.083Z,10.45
2023-05-14T15:15:41.976Z,10.23
2023-05-14T15:18:10.194Z,7.43
2023-05-14T15:20:38.199Z,3.50
2023-05-14T15:23:07.117Z,6.55
2023-05-14T15:25:34.697Z,11.30
2023-05-14T15:28:02.428Z,6.82
2023-05-14T15:30:31.963Z,6.00
2023-05-14T15:33:02.057Z,3.85
2023-05-14T15:35:29.960Z,5.50
2023-05-14T15:37:58.180Z,4.70
2023-05-14T15:40:27.950Z,7.30
2023-05-14T15:42:55.671Z,4.80
2023-05-14T15:45:23.358Z,5.93
2023-05-14T15:47:51.133Z,7.40
2023-05-14T15:50:18.805Z,7.68
2023-05-14T15:52:46.606Z,3.28
2023-05-14T15:55:14.248Z,10.65
2023-05-14T15:57:44.150Z,6.68
2023-05-14T16:00:12.327Z,4.78
2023-05-14T16:02:40.656Z,3.38
2023-05-14T16:05:08.875Z,10.32
2023-05-14T16:07:36.663Z,5.65
2023-05-14T16:10:04.650Z,5.97
2023-05-14T16:12:33.602Z,8.43
2023-05-14T16:15:02.448Z,5.88
2023-05-14T16:17:31.763Z,5.40
2023-05-14T16:20:00.278Z,9.32
2023-05-14T16:22:29.064Z,5.50
2023-05-14T16:24:56.824Z,7.28
2023-05-14T16:27:24.327Z,6.40
2023-05-14T16:29:51.824Z,5.22
2023-05-14T16:32:21.666Z,6.07
2023-05-14T16:34:50.549Z,7.70
2023-05-14T16:37:19.835Z,4.32
2023-05-14T16:39:49.970Z,5.60
2023-05-14T16:42:17.569Z,5.88
2023-05-14T16:44:46.766Z,6.35
2023-05-14T16:47:16.419Z,10.05
2023-05-14T16:49:45.259Z,8.27
2023-05-14T16:52:12.779Z,5.22
2023-05-14T16:54:40.273Z,10.15
2023-05-14T16:57:07.795Z,4.70
2023-05-14T16:59:35.620Z,11.18
2023-05-14T17:02:03.541Z,4.28
2023-05-14T17:04:33.007Z,7.28
2023-05-14T17:07:01.843Z,10.20
2023-05-14T17:09:29.293Z,8.65
2023-05-14T17:11:56.849Z,15.50
2023-05-14T17:14:24.299Z,7.30
2023-05-14T17:16:51.765Z,5.88
2023-05-14T17:19:19.276Z,12.75
2023-05-14T17:21:46.763Z,7.47
2023-05-14T17:24:15.575Z,13.05
2023-05-14T17:26:43.123Z,7.97
2023-05-14T17:29:10.629Z,10.02
2023-05-14T17:31:38.178Z,7.50
2023-05-14T17:34:05.825Z,9.55
2023-05-14T17:36:33.544Z,8.50
2023-05-14T17:39:01.079Z,11.73
2023-05-14T17:41:30.247Z,12.02
2023-05-14T17:43:57.672Z,8.38
2023-05-14T17:46:25.276Z,7.95
2023-05-14T17:48:52.825Z,13.18
2023-05-14T17:51:20.297Z,6.88
2023-05-14T17:53:48.342Z,12.52
2023-05-14T17:56:17.205Z,8.88
2023-05-14T17:58:46.150Z,7.03
2023-05-14T18:01:13.909Z,11.07
2023-05-14T18:03:42.407Z,12.93
2023-05-14T18:06:09.980Z,17.75
2023-05-14T18:08:37.433Z,9.45
2023-05-14T18:11:05.164Z,12.23
2023-05-14T18:13:32.614Z,10.23
2023-05-14T18:16:02.576Z,15.88
2023-05-14T18:18:30.188Z,11.30
2023-05-14T18:20:57.746Z,20.55
2023-05-14T18:23:25.322Z,15.63
2023-05-14T18:25:52.980Z,12.52
2023-05-14T18:28:21.497Z,16.10
2023-05-14T18:30:52.269Z,13.05
2023-05-14T18:33:21.297Z,20.90
2023-05-14T18:35:48.765Z,15.50
2023-05-14T18:38:17.883Z,21.35
2023-05-14T18:40:45.510Z,20.55
2023-05-14T18:43:15.005Z,22.55
2023-05-14T18:45:42.567Z,24.73
2023-05-14T18:48:10.448Z,26.63
2023-05-14T18:50:39.479Z,22.67
2023-05-14T18:53:07.556Z,21.40
2023-05-14T18:55:36.229Z,19.75
2023-05-14T18:58:03.983Z,15.35
2023-05-14T19:00:31.526Z,14.68
2023-05-14T19:02:59.306Z,14.55
2023-05-14T19:05:29.227Z,12.23
2023-05-14T19:07:58.490Z,17.13
2023-05-14T19:10:26.016Z,13.02
2023-05-14T19:12:53.554Z,11.38
2023-05-14T19:15:21.117Z,13.98
2023-05-14T19:17:49.417Z,12.63
2023-05-14T19:20:18.920Z,13.70
2023-05-14T19:22:46.405Z,13.45
2023-05-14T19:25:15.345Z,19.55
2023-05-14T19:27:42.904Z,22.08
2023-05-14T19:30:10.873Z,17.33
2023-05-14T19:32:38.680Z,18.42
2023-05-14T19:35:06.688Z,24.60
2023-05-14T19:37:34.646Z,12.02
2023-05-14T19:40:02.355Z,15.13
2023-05-14T19:42:31.794Z,19.23
2023-05-14T19:44:59.443Z,18.40
2023-05-14T19:47:28.578Z,23.92
2023-05-14T19:49:56.168Z,21.58
2023-05-14T19:52:23.803Z,17.50
2023-05-14T20:17:06.819Z,18.52
2023-05-14T20:19:34.417Z,20.23
2023-05-14T20:22:01.880Z,22.20
2023-05-14T20:24:29.740Z,23.98
2023-05-14T20:26:57.718Z,17.63
2023-05-14T20:29:25.693Z,17.55
2023-05-14T20:31:55.402Z,18.88
2023-05-14T20:34:24.291Z,20.90
2023-05-14T20:36:51.901Z,17.80
2023-05-14T20:39:19.493Z,27.67
2023-05-14T20:41:46.980Z,19.67
2023-05-14T20:44:14.431Z,22.63
2023-05-14T20:46:42.397Z,25.95
2023-05-14T20:49:09.897Z,25.90
2023-05-14T20:51:38.782Z,23.27
2023-05-14T20:54:06.450Z,25.67
2023-05-14T20:56:34.246Z,20.20
2023-05-14T20:59:01.775Z,23.27
2023-05-14T21:01:29.448Z,22.10
2023-05-14T21:03:58.126Z,33.40
2023-05-14T21:06:25.790Z,22.35
2023-05-14T21:08:55.197Z,31.33
2023-05-14T21:11:23.110Z,25.20
2023-05-14T21:13:50.835Z,19.73
2023-05-14T21:16:19.867Z,25.33
2023-05-14T21:18:47.378Z,22.98
2023-05-14T21:21:14.884Z,21.55
2023-05-14T21:23:42.540Z,24.80
2023-05-14T21:26:13.090Z,18.92
2023-05-14T21:28:40.557Z,24.95
2023-05-14T21:31:08.337Z,20.67
2023-05-14T21:33:35.876Z,18.17
2023-05-14T21:36:03.373Z,23.42
2023-05-14T21:38:31.768Z,33.75
2023-05-14T21:40:59.585Z,25.85
2023-05-14T21:43:28.380Z,23.88
2023-05-14T21:45:56.642Z,22.55
2023-05-14T21:48:27.224Z,21.05
2023-05-14T21:50:55.966Z,23.27
2023-05-14T21:53:23.542Z,19.35
2023-05-14T21:55:51.028Z,24.35
2023-05-14T21:58:18.582Z,29.77
2023-05-14T22:00:47.529Z,26.60
2023-05-14T22:03:15.053Z,21.23
2023-05-14T22:05:42.574Z,16.70
2023-05-14T22:08:10.313Z,26.33
2023-05-14T22:10:37.741Z,27.42
2023-05-14T22:13:07.482Z,23.35
2023-05-14T22:15:35.072Z,20.13
2023-05-14T22:18:04.271Z,21.25
2023-05-14T22:20:31.812Z,22.88
2023-05-14T22:22:59.326Z,25.17
2023-05-14T22:25:27.021Z,24.92
2023-05-14T22:27:54.905Z,20.10
2023-05-14T22:30:22.461Z,28.35
2023-05-14T22:32:58.330Z,19.42
2023-05-14T22:35:27.798Z,21.33
2023-05-14T22:37:55.519Z,15.15
2023-05-14T22:40:23.092Z,20.45
2023-05-14T22:42:50.758Z,14.98
2023-05-14T22:45:18.393Z,14.57
2023-05-14T22:47:45.915Z,20.90
2023-05-14T22:50:13.466Z,13.63
2023-05-14T22:52:43.512Z,18.30
2023-05-14T22:55:11.465Z,18.38
2023-05-14T22:57:39.125Z,22.17
2023-05-14T23:00:09.019Z,12.52
2023-05-14T23:02:36.560Z,18.52
2023-05-14T23:05:04.278Z,19.90
2023-05-14T23:07:31.800Z,14.30
2023-05-14T23:10:00.851Z,21.20
2023-05-14T23:12:28.390Z,19.10
2023-05-14T23:14:56.042Z,23.85
2023-05-14T23:17:23.574Z,20.67
2023-05-14T23:19:51.278Z,22.20
2023-05-14T23:22:19.020Z,17.95
2023-05-14T23:24:46.479Z,18.55
2023-05-14T23:27:15.353Z,13.10
2023-05-14T23:29:44.165Z,21.02
2023-05-14T23:32:11.682Z,16.95
2023-05-14T23:34:39.317Z,14.43
2023-05-14T23:37:11.381Z,16.65
2023-05-14T23:39:39.308Z,18.42
2023-05-14T23:42:06.900Z,15.13
2023-05-14T23:44:35.714Z,10.65
2023-05-14T23:47:04.223Z,22.27
2023-05-14T23:49:31.776Z,24.23
2023-05-14T23:51:59.785Z,18.33
2023-05-14T23:54:29.541Z,23.60
2023-05-14T23:56:57.075Z,16.75
2023-05-14T23:59:24.528Z,16.52
